JTM125 WIII-WIBB
Flight info
| Callsign | JTM125 |
|---|---|
| Flight time | 1h 24m |
| Altitude | 34000 |
| Route | GOME1B GOMEL T10 OVSET OVSE1G |
| Aircraft | B738/M-SDE2FGHIRWY/L |
Departure
| Time | 2026-05-07 14:20 |
|---|---|
| Airport | Soekarno-Hatta International Airport (WIII) |
Arrival
| Time | 2026-05-07 15:44 |
|---|---|
| Airport | Sultan Syarif Kasim II International Airport / Roesmin Nurjadin AFB (WIBB) |
| Time | Latitude | Longitude | Altitude | Speed | Heading |
|---|---|---|---|---|---|
| 2026-05-07 13:47 | -6.11954 | 106.65181 | 37 ft | 0 kts | 192° |
| 2026-05-07 14:06 | -6.11945 | 106.65183 | 37 ft | 2 kts | 189° |
| 2026-05-07 14:06 | -6.11917 | 106.65180 | 36 ft | 5 kts | 169° |
| 2026-05-07 14:07 | -6.11881 | 106.65179 | 36 ft | 0 kts | 252° |
| 2026-05-07 14:07 | -6.11881 | 106.65177 | 36 ft | 2 kts | 260° |
| 2026-05-07 14:07 | -6.11883 | 106.65164 | 35 ft | 0 kts | 258° |
| 2026-05-07 14:12 | -6.11889 | 106.65143 | 36 ft | 6 kts | 253° |
| 2026-05-07 14:12 | -6.11902 | 106.65102 | 36 ft | 6 kts | 250° |
| 2026-05-07 14:13 | -6.11916 | 106.65063 | 36 ft | 5 kts | 249° |
| 2026-05-07 14:13 | -6.11908 | 106.65021 | 36 ft | 9 kts | 313° |
| 2026-05-07 14:13 | -6.11866 | 106.64957 | 34 ft | 13 kts | 257° |
| 2026-05-07 14:13 | -6.11902 | 106.64866 | 33 ft | 14 kts | 248° |
| 2026-05-07 14:14 | -6.11944 | 106.64761 | 33 ft | 19 kts | 249° |
| 2026-05-07 14:14 | -6.12000 | 106.64619 | 31 ft | 22 kts | 248° |
| 2026-05-07 14:14 | -6.12055 | 106.64475 | 33 ft | 21 kts | 248° |
| 2026-05-07 14:14 | -6.12112 | 106.64337 | 35 ft | 21 kts | 248° |
| 2026-05-07 14:15 | -6.12168 | 106.64200 | 35 ft | 21 kts | 249° |
| 2026-05-07 14:15 | -6.12222 | 106.64062 | 37 ft | 20 kts | 248° |
| 2026-05-07 14:15 | -6.12264 | 106.63931 | 38 ft | 19 kts | 278° |
| 2026-05-07 14:15 | -6.12226 | 106.63892 | 38 ft | 0 kts | 340° |
| 2026-05-07 14:18 | -6.12183 | 106.63885 | 38 ft | 10 kts | 6° |
| 2026-05-07 14:18 | -6.12114 | 106.63918 | 37 ft | 11 kts | 38° |
| 2026-05-07 14:19 | -6.12064 | 106.63981 | 36 ft | 12 kts | 65° |
| 2026-05-07 14:19 | -6.12015 | 106.64095 | 35 ft | 40 kts | 70° |
| 2026-05-07 14:19 | -6.11791 | 106.64664 | 32 ft | 129 kts | 68° |
| 2026-05-07 14:19 | -6.11373 | 106.65717 | 104 ft | 189 kts | 68° |
| 2026-05-07 14:20 | -6.10806 | 106.66987 | 721 ft | 213 kts | 66° |
| 2026-05-07 14:20 | -6.10163 | 106.68310 | 1949 ft | 213 kts | 62° |
| 2026-05-07 14:20 | -6.09208 | 106.69460 | 2929 ft | 228 kts | 37° |
| 2026-05-07 14:20 | -6.07810 | 106.70233 | 3994 ft | 237 kts | 28° |
| 2026-05-07 14:21 | -6.06314 | 106.70969 | 5073 ft | 243 kts | 30° |
| 2026-05-07 14:21 | -6.04834 | 106.71774 | 6109 ft | 247 kts | 32° |
| 2026-05-07 14:21 | -6.03323 | 106.72654 | 6864 ft | 262 kts | 33° |
| 2026-05-07 14:21 | -6.01716 | 106.73602 | 7643 ft | 276 kts | 31° |
| 2026-05-07 14:22 | -5.99925 | 106.74376 | 8555 ft | 286 kts | 15° |
| 2026-05-07 14:22 | -5.97947 | 106.74387 | 9550 ft | 294 kts | 348° |
| 2026-05-07 14:22 | -5.96083 | 106.73486 | 10498 ft | 304 kts | 323° |
| 2026-05-07 14:22 | -5.94698 | 106.71886 | 11412 ft | 311 kts | 302° |
| 2026-05-07 14:23 | -5.93705 | 106.69956 | 12282 ft | 317 kts | 296° |
| 2026-05-07 14:23 | -5.92786 | 106.67950 | 13219 ft | 321 kts | 295° |
| 2026-05-07 14:23 | -5.91861 | 106.65895 | 14149 ft | 326 kts | 295° |
| 2026-05-07 14:23 | -5.90928 | 106.63838 | 15042 ft | 331 kts | 296° |
| 2026-05-07 14:24 | -5.89960 | 106.61727 | 15916 ft | 336 kts | 296° |
| 2026-05-07 14:24 | -5.88962 | 106.59576 | 16517 ft | 350 kts | 296° |
| 2026-05-07 14:24 | -5.87892 | 106.57285 | 17027 ft | 367 kts | 296° |
| 2026-05-07 14:24 | -5.86794 | 106.54938 | 17534 ft | 382 kts | 296° |
| 2026-05-07 14:25 | -5.85636 | 106.52460 | 18008 ft | 397 kts | 296° |
| 2026-05-07 14:25 | -5.84452 | 106.49931 | 18448 ft | 411 kts | 296° |
| 2026-05-07 14:25 | -5.83212 | 106.47276 | 18863 ft | 426 kts | 296° |
| 2026-05-07 14:25 | -5.81942 | 106.44558 | 19445 ft | 434 kts | 296° |
| 2026-05-07 14:26 | -5.80661 | 106.41805 | 20140 ft | 439 kts | 296° |
| 2026-05-07 14:26 | -5.79371 | 106.39032 | 20885 ft | 442 kts | 296° |
| 2026-05-07 14:26 | -5.78064 | 106.36217 | 21611 ft | 445 kts | 296° |
| 2026-05-07 14:26 | -5.76754 | 106.33396 | 22295 ft | 448 kts | 297° |
| 2026-05-07 14:27 | -5.75405 | 106.30600 | 22893 ft | 453 kts | 299° |
| 2026-05-07 14:27 | -5.73823 | 106.27852 | 23467 ft | 456 kts | 306° |
| 2026-05-07 14:27 | -5.71832 | 106.25340 | 24044 ft | 459 kts | 315° |
| 2026-05-07 14:27 | -5.69535 | 106.23127 | 24609 ft | 462 kts | 320° |
| 2026-05-07 14:28 | -5.67032 | 106.21055 | 25186 ft | 466 kts | 323° |
| 2026-05-07 14:28 | -5.64458 | 106.19070 | 25605 ft | 474 kts | 324° |
| 2026-05-07 14:28 | -5.61758 | 106.17039 | 25811 ft | 486 kts | 325° |
| 2026-05-07 14:28 | -5.59035 | 106.14994 | 26112 ft | 495 kts | 324° |
| 2026-05-07 14:29 | -5.56271 | 106.12898 | 26746 ft | 497 kts | 324° |
| 2026-05-07 14:29 | -5.53516 | 106.10784 | 27521 ft | 494 kts | 324° |
| 2026-05-07 14:29 | -5.50785 | 106.08664 | 28227 ft | 494 kts | 324° |
| 2026-05-07 14:29 | -5.48073 | 106.06538 | 28904 ft | 493 kts | 323° |
| 2026-05-07 14:30 | -5.45396 | 106.04425 | 29666 ft | 490 kts | 323° |
| 2026-05-07 14:30 | -5.42740 | 106.02320 | 30398 ft | 488 kts | 323° |
| 2026-05-07 14:30 | -5.40062 | 106.00192 | 31103 ft | 486 kts | 323° |
| 2026-05-07 14:30 | -5.37411 | 105.98084 | 31774 ft | 484 kts | 322° |
| 2026-05-07 14:31 | -5.34779 | 105.95991 | 32437 ft | 482 kts | 322° |
| 2026-05-07 14:31 | -5.32172 | 105.93916 | 33243 ft | 479 kts | 322° |
| 2026-05-07 14:31 | -5.29568 | 105.91844 | 33742 ft | 481 kts | 322° |
| 2026-05-07 14:31 | -5.26933 | 105.89748 | 33875 ft | 481 kts | 322° |
| 2026-05-07 14:32 | -5.24312 | 105.87664 | 33879 ft | 475 kts | 322° |
| 2026-05-07 14:32 | -5.19135 | 105.83547 | 33877 ft | 475 kts | 322° |
| 2026-05-07 14:33 | -5.13846 | 105.79551 | 33877 ft | 474 kts | 325° |
| 2026-05-07 14:33 | -5.08418 | 105.75725 | 33877 ft | 474 kts | 326° |
| 2026-05-07 14:34 | -5.02996 | 105.71944 | 33876 ft | 475 kts | 326° |
| 2026-05-07 14:34 | -4.97588 | 105.68150 | 33874 ft | 475 kts | 326° |
| 2026-05-07 14:35 | -4.92197 | 105.64341 | 33876 ft | 475 kts | 326° |
| 2026-05-07 14:35 | -4.86774 | 105.60496 | 33874 ft | 475 kts | 326° |
| 2026-05-07 14:36 | -4.81373 | 105.56660 | 33875 ft | 474 kts | 326° |
| 2026-05-07 14:36 | -4.75989 | 105.52835 | 33873 ft | 474 kts | 326° |
| 2026-05-07 14:37 | -4.70608 | 105.49012 | 33879 ft | 475 kts | 326° |
| 2026-05-07 14:37 | -4.62495 | 105.43249 | 33879 ft | 475 kts | 326° |
| 2026-05-07 14:38 | -4.57087 | 105.39409 | 33880 ft | 476 kts | 326° |
| 2026-05-07 14:38 | -4.51701 | 105.35585 | 33884 ft | 475 kts | 326° |
| 2026-05-07 14:39 | -4.46314 | 105.31761 | 33888 ft | 475 kts | 326° |
| 2026-05-07 14:39 | -4.40902 | 105.27920 | 33887 ft | 475 kts | 326° |
| 2026-05-07 14:40 | -4.35487 | 105.24078 | 33889 ft | 475 kts | 326° |
| 2026-05-07 14:40 | -4.30112 | 105.20267 | 33890 ft | 476 kts | 326° |
| 2026-05-07 14:41 | -4.24695 | 105.16425 | 33891 ft | 477 kts | 326° |
| 2026-05-07 14:41 | -4.19277 | 105.12584 | 33888 ft | 476 kts | 326° |
| 2026-05-07 14:42 | -4.13888 | 105.08763 | 33889 ft | 476 kts | 326° |
| 2026-05-07 14:42 | -4.08549 | 105.04816 | 33890 ft | 477 kts | 322° |
| 2026-05-07 14:43 | -4.03600 | 105.00385 | 33886 ft | 477 kts | 318° |
| 2026-05-07 14:43 | -3.98822 | 104.95789 | 33889 ft | 477 kts | 317° |
| 2026-05-07 14:44 | -3.94021 | 104.91167 | 33886 ft | 476 kts | 317° |
| 2026-05-07 14:44 | -3.89226 | 104.86613 | 33888 ft | 476 kts | 318° |
| 2026-05-07 14:45 | -3.84395 | 104.82068 | 33885 ft | 476 kts | 318° |
| 2026-05-07 14:45 | -3.79564 | 104.77544 | 33881 ft | 475 kts | 318° |
| 2026-05-07 14:46 | -3.74729 | 104.73022 | 33886 ft | 476 kts | 318° |
| 2026-05-07 14:46 | -3.69918 | 104.68524 | 33881 ft | 475 kts | 318° |
| 2026-05-07 14:47 | -3.65073 | 104.63997 | 33879 ft | 475 kts | 318° |
| 2026-05-07 14:47 | -3.60255 | 104.59493 | 33882 ft | 475 kts | 318° |
| 2026-05-07 14:48 | -3.55430 | 104.54984 | 33878 ft | 474 kts | 318° |
| 2026-05-07 14:48 | -3.50606 | 104.50475 | 33876 ft | 474 kts | 318° |
| 2026-05-07 14:49 | -3.45772 | 104.45959 | 33874 ft | 474 kts | 318° |
| 2026-05-07 14:49 | -3.40952 | 104.41457 | 33872 ft | 474 kts | 318° |
| 2026-05-07 14:50 | -3.36131 | 104.36954 | 33870 ft | 474 kts | 318° |
| 2026-05-07 14:50 | -3.31305 | 104.32447 | 33870 ft | 475 kts | 318° |
| 2026-05-07 14:51 | -3.26446 | 104.27910 | 33872 ft | 475 kts | 318° |
| 2026-05-07 14:51 | -3.21643 | 104.23426 | 33870 ft | 474 kts | 317° |
| 2026-05-07 14:52 | -3.16792 | 104.18896 | 33870 ft | 474 kts | 318° |
| 2026-05-07 14:52 | -3.11998 | 104.14421 | 33882 ft | 474 kts | 318° |
| 2026-05-07 14:53 | -3.07139 | 104.09886 | 33887 ft | 475 kts | 318° |
| 2026-05-07 14:53 | -3.02298 | 104.05371 | 33887 ft | 475 kts | 317° |
| 2026-05-07 14:54 | -2.97456 | 104.00854 | 33887 ft | 476 kts | 317° |
| 2026-05-07 14:54 | -2.92631 | 103.96352 | 33888 ft | 475 kts | 317° |
| 2026-05-07 14:55 | -2.87791 | 103.91835 | 33888 ft | 474 kts | 317° |
| 2026-05-07 14:55 | -2.82965 | 103.87334 | 33887 ft | 475 kts | 317° |
| 2026-05-07 14:56 | -2.78140 | 103.82835 | 33886 ft | 476 kts | 317° |
| 2026-05-07 14:56 | -2.73289 | 103.78310 | 33885 ft | 476 kts | 317° |
| 2026-05-07 14:57 | -2.68427 | 103.73779 | 33884 ft | 477 kts | 317° |
| 2026-05-07 14:57 | -2.63579 | 103.69258 | 33886 ft | 476 kts | 317° |
| 2026-05-07 14:58 | -2.58738 | 103.64745 | 33884 ft | 476 kts | 317° |
| 2026-05-07 14:58 | -2.53882 | 103.60220 | 33883 ft | 476 kts | 317° |
| 2026-05-07 14:59 | -2.49047 | 103.55714 | 33885 ft | 476 kts | 317° |
| 2026-05-07 14:59 | -2.44205 | 103.51203 | 33885 ft | 476 kts | 317° |
| 2026-05-07 15:00 | -2.39366 | 103.46693 | 33884 ft | 477 kts | 317° |
| 2026-05-07 15:00 | -2.34507 | 103.42168 | 33882 ft | 477 kts | 317° |
| 2026-05-07 15:01 | -2.29623 | 103.37613 | 33881 ft | 477 kts | 317° |
| 2026-05-07 15:01 | -2.24771 | 103.33080 | 33880 ft | 478 kts | 317° |
| 2026-05-07 15:02 | -2.19929 | 103.28554 | 33877 ft | 478 kts | 317° |
| 2026-05-07 15:02 | -2.15056 | 103.24002 | 33885 ft | 479 kts | 317° |
| 2026-05-07 15:03 | -2.10168 | 103.19437 | 33893 ft | 479 kts | 317° |
| 2026-05-07 15:03 | -2.05315 | 103.14903 | 33893 ft | 480 kts | 317° |
| 2026-05-07 15:04 | -2.00417 | 103.10328 | 33893 ft | 480 kts | 317° |
| 2026-05-07 15:04 | -1.95529 | 103.05764 | 33891 ft | 479 kts | 317° |
| 2026-05-07 15:05 | -1.90650 | 103.01209 | 33886 ft | 481 kts | 317° |
| 2026-05-07 15:05 | -1.85756 | 102.96639 | 33889 ft | 480 kts | 317° |
| 2026-05-07 15:06 | -1.80876 | 102.92083 | 33889 ft | 481 kts | 317° |
| 2026-05-07 15:06 | -1.75964 | 102.87498 | 33887 ft | 481 kts | 317° |
| 2026-05-07 15:07 | -1.71086 | 102.82946 | 33894 ft | 481 kts | 317° |
| 2026-05-07 15:07 | -1.66168 | 102.78358 | 33883 ft | 481 kts | 317° |
| 2026-05-07 15:08 | -1.61311 | 102.73825 | 33877 ft | 481 kts | 318° |
| 2026-05-07 15:08 | -1.56118 | 102.69610 | 33874 ft | 480 kts | 329° |
| 2026-05-07 15:09 | -1.49928 | 102.67013 | 33880 ft | 479 kts | 343° |
| 2026-05-07 15:09 | -1.43532 | 102.65154 | 33881 ft | 479 kts | 346° |
| 2026-05-07 15:10 | -1.37112 | 102.63401 | 33879 ft | 479 kts | 346° |
| 2026-05-07 15:10 | -1.30677 | 102.61608 | 33881 ft | 478 kts | 345° |
| 2026-05-07 15:11 | -1.24267 | 102.59772 | 33880 ft | 478 kts | 345° |
| 2026-05-07 15:11 | -1.17862 | 102.57907 | 33883 ft | 478 kts | 345° |
| 2026-05-07 15:12 | -1.11472 | 102.56032 | 33882 ft | 479 kts | 345° |
| 2026-05-07 15:12 | -1.05057 | 102.54144 | 33882 ft | 479 kts | 345° |
| 2026-05-07 15:13 | -0.98626 | 102.52248 | 33881 ft | 479 kts | 345° |
| 2026-05-07 15:13 | -0.92211 | 102.50357 | 33879 ft | 479 kts | 345° |
| 2026-05-07 15:14 | -0.85790 | 102.48465 | 33877 ft | 480 kts | 345° |
| 2026-05-07 15:14 | -0.79380 | 102.46576 | 33874 ft | 478 kts | 345° |
| 2026-05-07 15:15 | -0.73035 | 102.44707 | 33874 ft | 478 kts | 345° |
| 2026-05-07 15:15 | -0.66645 | 102.42824 | 33873 ft | 477 kts | 345° |
| 2026-05-07 15:16 | -0.60259 | 102.40904 | 33872 ft | 478 kts | 342° |
| 2026-05-07 15:16 | -0.54317 | 102.37888 | 33873 ft | 480 kts | 324° |
| 2026-05-07 15:17 | -0.49218 | 102.33509 | 33871 ft | 482 kts | 317° |
| 2026-05-07 15:17 | -0.44425 | 102.28823 | 33870 ft | 481 kts | 316° |
| 2026-05-07 15:18 | -0.39707 | 102.24109 | 33808 ft | 479 kts | 316° |
| 2026-05-07 15:18 | -0.37364 | 102.21783 | 33164 ft | 474 kts | 316° |
| 2026-05-07 15:18 | -0.35019 | 102.19469 | 32276 ft | 474 kts | 316° |
| 2026-05-07 15:19 | -0.32684 | 102.17179 | 31639 ft | 470 kts | 316° |
| 2026-05-07 15:19 | -0.30357 | 102.14906 | 31007 ft | 466 kts | 316° |
| 2026-05-07 15:19 | -0.28046 | 102.12655 | 30366 ft | 462 kts | 316° |
| 2026-05-07 15:19 | -0.25769 | 102.10438 | 29747 ft | 458 kts | 317° |
| 2026-05-07 15:20 | -0.23483 | 102.08231 | 29132 ft | 453 kts | 317° |
| 2026-05-07 15:20 | -0.21232 | 102.06055 | 28525 ft | 449 kts | 318° |
| 2026-05-07 15:20 | -0.18986 | 102.03880 | 27955 ft | 444 kts | 317° |
| 2026-05-07 15:20 | -0.16786 | 102.01749 | 27422 ft | 439 kts | 318° |
| 2026-05-07 15:21 | -0.14611 | 101.99641 | 26845 ft | 435 kts | 318° |
| 2026-05-07 15:21 | -0.12446 | 101.97546 | 26217 ft | 433 kts | 317° |
| 2026-05-07 15:21 | -0.10282 | 101.95453 | 25602 ft | 430 kts | 317° |
| 2026-05-07 15:21 | -0.08145 | 101.93386 | 24981 ft | 427 kts | 317° |
| 2026-05-07 15:22 | -0.06029 | 101.91338 | 24424 ft | 423 kts | 317° |
| 2026-05-07 15:22 | -0.03944 | 101.89317 | 23943 ft | 417 kts | 317° |
| 2026-05-07 15:22 | -0.01848 | 101.87286 | 23858 ft | 413 kts | 317° |
| 2026-05-07 15:22 | 0.00234 | 101.85269 | 23858 ft | 421 kts | 317° |
| 2026-05-07 15:23 | 0.02329 | 101.83240 | 23813 ft | 419 kts | 317° |
| 2026-05-07 15:23 | 0.04402 | 101.81230 | 23466 ft | 412 kts | 317° |
| 2026-05-07 15:23 | 0.06451 | 101.79247 | 22817 ft | 412 kts | 318° |
| 2026-05-07 15:23 | 0.08541 | 101.77306 | 22229 ft | 408 kts | 321° |
| 2026-05-07 15:24 | 0.10769 | 101.75550 | 21680 ft | 404 kts | 326° |
| 2026-05-07 15:24 | 0.13057 | 101.73975 | 21154 ft | 399 kts | 329° |
| 2026-05-07 15:24 | 0.15394 | 101.72472 | 20610 ft | 396 kts | 330° |
| 2026-05-07 15:24 | 0.17695 | 101.71033 | 20076 ft | 392 kts | 330° |
| 2026-05-07 15:25 | 0.20019 | 101.69587 | 19571 ft | 388 kts | 330° |
| 2026-05-07 15:25 | 0.22298 | 101.68163 | 19030 ft | 384 kts | 330° |
| 2026-05-07 15:25 | 0.24508 | 101.66772 | 18834 ft | 370 kts | 330° |
| 2026-05-07 15:25 | 0.26661 | 101.65408 | 18641 ft | 357 kts | 330° |
| 2026-05-07 15:26 | 0.28753 | 101.64078 | 18171 ft | 355 kts | 330° |
| 2026-05-07 15:26 | 0.30814 | 101.62767 | 17691 ft | 352 kts | 330° |
| 2026-05-07 15:26 | 0.32893 | 101.61443 | 17371 ft | 344 kts | 330° |
| 2026-05-07 15:26 | 0.34863 | 101.60184 | 17214 ft | 331 kts | 330° |
| 2026-05-07 15:27 | 0.36764 | 101.58990 | 16972 ft | 321 kts | 332° |
| 2026-05-07 15:27 | 0.38766 | 101.58019 | 16556 ft | 316 kts | 344° |
| 2026-05-07 15:27 | 0.40911 | 101.57613 | 16114 ft | 309 kts | 359° |
| 2026-05-07 15:27 | 0.43058 | 101.57542 | 15674 ft | 307 kts | 2° |
| 2026-05-07 15:28 | 0.45196 | 101.57540 | 15245 ft | 305 kts | 2° |
| 2026-05-07 15:28 | 0.47306 | 101.57538 | 14859 ft | 303 kts | 2° |
| 2026-05-07 15:28 | 0.49408 | 101.57522 | 14434 ft | 302 kts | 1° |
| 2026-05-07 15:28 | 0.51521 | 101.57492 | 14023 ft | 300 kts | 1° |
| 2026-05-07 15:29 | 0.53619 | 101.57454 | 13586 ft | 299 kts | 1° |
| 2026-05-07 15:29 | 0.55685 | 101.57391 | 13168 ft | 297 kts | 358° |
| 2026-05-07 15:29 | 0.57745 | 101.57227 | 12739 ft | 297 kts | 355° |
| 2026-05-07 15:29 | 0.59801 | 101.56988 | 12349 ft | 294 kts | 354° |
| 2026-05-07 15:30 | 0.61836 | 101.56729 | 11932 ft | 293 kts | 354° |
| 2026-05-07 15:30 | 0.63840 | 101.56383 | 11507 ft | 292 kts | 346° |
| 2026-05-07 15:30 | 0.65691 | 101.55566 | 11080 ft | 292 kts | 324° |
| 2026-05-07 15:30 | 0.67029 | 101.54055 | 10673 ft | 293 kts | 299° |
| 2026-05-07 15:31 | 0.67666 | 101.52185 | 10225 ft | 278 kts | 281° |
| 2026-05-07 15:31 | 0.67936 | 101.50279 | 9360 ft | 278 kts | 276° |
| 2026-05-07 15:31 | 0.67933 | 101.48425 | 8805 ft | 264 kts | 261° |
| 2026-05-07 15:31 | 0.67321 | 101.46761 | 8275 ft | 252 kts | 232° |
| 2026-05-07 15:32 | 0.66045 | 101.45677 | 7880 ft | 236 kts | 206° |
| 2026-05-07 15:32 | 0.64553 | 101.45125 | 7486 ft | 223 kts | 191° |
| 2026-05-07 15:32 | 0.63043 | 101.44907 | 7097 ft | 212 kts | 183° |
| 2026-05-07 15:32 | 0.61601 | 101.44838 | 6613 ft | 202 kts | 180° |
| 2026-05-07 15:33 | 0.60229 | 101.44929 | 6000 ft | 201 kts | 163° |
| 2026-05-07 15:33 | 0.59071 | 101.45685 | 5365 ft | 203 kts | 127° |
| 2026-05-07 15:33 | 0.58605 | 101.46973 | 4815 ft | 200 kts | 91° |
| 2026-05-07 15:33 | 0.59014 | 101.48273 | 4299 ft | 198 kts | 54° |
| 2026-05-07 15:34 | 0.60102 | 101.49017 | 3981 ft | 189 kts | 15° |
| 2026-05-07 15:34 | 0.61371 | 101.49113 | 3733 ft | 178 kts | 1° |
| 2026-05-07 15:34 | 0.62585 | 101.49108 | 3523 ft | 167 kts | 2° |
| 2026-05-07 15:34 | 0.63713 | 101.49113 | 3327 ft | 156 kts | 2° |
| 2026-05-07 15:35 | 0.64711 | 101.49110 | 3242 ft | 134 kts | 2° |
| 2026-05-07 15:35 | 0.65643 | 101.49096 | 2878 ft | 136 kts | 1° |
| 2026-05-07 15:35 | 0.66601 | 101.49083 | 2516 ft | 137 kts | 2° |
| 2026-05-07 15:35 | 0.67561 | 101.49072 | 2153 ft | 137 kts | 2° |
| 2026-05-07 15:36 | 0.68517 | 101.49059 | 1787 ft | 138 kts | 2° |
| 2026-05-07 15:36 | 0.69454 | 101.49026 | 1642 ft | 132 kts | 355° |
| 2026-05-07 15:36 | 0.70261 | 101.48566 | 1701 ft | 141 kts | 307° |
| 2026-05-07 15:36 | 0.70454 | 101.47604 | 1687 ft | 144 kts | 253° |
| 2026-05-07 15:37 | 0.70103 | 101.46681 | 1689 ft | 143 kts | 248° |
| 2026-05-07 15:37 | 0.69702 | 101.45769 | 1676 ft | 142 kts | 228° |
| 2026-05-07 15:37 | 0.68862 | 101.45324 | 1708 ft | 136 kts | 189° |
| 2026-05-07 15:37 | 0.67924 | 101.45136 | 1684 ft | 135 kts | 185° |
| 2026-05-07 15:38 | 0.66995 | 101.45043 | 1690 ft | 134 kts | 179° |
| 2026-05-07 15:38 | 0.66053 | 101.45016 | 1687 ft | 134 kts | 178° |
| 2026-05-07 15:38 | 0.65438 | 101.44998 | 1684 ft | 134 kts | 179° |
| 2026-05-07 15:39 | 0.64797 | 101.44979 | 1686 ft | 135 kts | 179° |
| 2026-05-07 15:39 | 0.63855 | 101.44953 | 1683 ft | 133 kts | 179° |
| 2026-05-07 15:40 | 0.62916 | 101.44927 | 1686 ft | 135 kts | 178° |
| 2026-05-07 15:40 | 0.61977 | 101.44902 | 1687 ft | 135 kts | 179° |
| 2026-05-07 15:40 | 0.61034 | 101.44872 | 1682 ft | 134 kts | 179° |
| 2026-05-07 15:40 | 0.60084 | 101.44843 | 1681 ft | 134 kts | 178° |
| 2026-05-07 15:41 | 0.59144 | 101.44820 | 1682 ft | 134 kts | 178° |
| 2026-05-07 15:41 | 0.58209 | 101.44795 | 1683 ft | 134 kts | 178° |
| 2026-05-07 15:41 | 0.57264 | 101.44765 | 1683 ft | 134 kts | 178° |
| 2026-05-07 15:41 | 0.56325 | 101.44739 | 1684 ft | 135 kts | 179° |
| 2026-05-07 15:42 | 0.55376 | 101.44712 | 1683 ft | 135 kts | 178° |
| 2026-05-07 15:42 | 0.54438 | 101.44686 | 1647 ft | 136 kts | 178° |
| 2026-05-07 15:42 | 0.53484 | 101.44657 | 1482 ft | 134 kts | 179° |
| 2026-05-07 15:42 | 0.52551 | 101.44630 | 1309 ft | 134 kts | 179° |
| 2026-05-07 15:43 | 0.51609 | 101.44602 | 1126 ft | 133 kts | 179° |
| 2026-05-07 15:43 | 0.50686 | 101.44575 | 947 ft | 133 kts | 180° |
| 2026-05-07 15:43 | 0.49739 | 101.44535 | 721 ft | 135 kts | 181° |
| 2026-05-07 15:43 | 0.48810 | 101.44522 | 499 ft | 134 kts | 177° |
| 2026-05-07 15:44 | 0.47866 | 101.44527 | 321 ft | 133 kts | 181° |
| 2026-05-07 15:44 | 0.46946 | 101.44479 | 162 ft | 131 kts | 182° |
| 2026-05-07 15:44 | 0.46084 | 101.44443 | 136 ft | 111 kts | 176° |
| 2026-05-07 15:44 | 0.45536 | 101.44437 | 129 ft | 42 kts | 180° |
| 2026-05-07 15:45 | 0.45433 | 101.44435 | 128 ft | 0 kts | 181° |
| 2026-05-07 15:45 | 0.45429 | 101.44435 | 128 ft | 3 kts | 181° |
| 2026-05-07 15:45 | 0.45363 | 101.44434 | 128 ft | 14 kts | 181° |
| 2026-05-07 15:45 | 0.45251 | 101.44431 | 127 ft | 17 kts | 181° |
| 2026-05-07 15:46 | 0.44976 | 101.44421 | 120 ft | 22 kts | 180° |
| 2026-05-07 15:46 | 0.44820 | 101.44441 | 117 ft | 21 kts | 156° |
| 2026-05-07 15:46 | 0.44775 | 101.44415 | 116 ft | 4 kts | 0° |
| 2026-05-07 15:47 | 0.44816 | 101.44415 | 117 ft | 10 kts | 360° |
| 2026-05-07 15:47 | 0.44934 | 101.44415 | 119 ft | 18 kts | 1° |
| 2026-05-07 15:47 | 0.45059 | 101.44418 | 122 ft | 17 kts | 0° |
| 2026-05-07 15:47 | 0.45175 | 101.44421 | 125 ft | 15 kts | 1° |
| 2026-05-07 15:48 | 0.45311 | 101.44426 | 128 ft | 23 kts | 2° |
| 2026-05-07 15:48 | 0.45510 | 101.44436 | 129 ft | 32 kts | 1° |
| 2026-05-07 15:48 | 0.45735 | 101.44440 | 133 ft | 33 kts | 1° |
| 2026-05-07 15:48 | 0.46001 | 101.44447 | 136 ft | 40 kts | 2° |
| 2026-05-07 15:49 | 0.46256 | 101.44456 | 139 ft | 25 kts | 1° |
| 2026-05-07 15:49 | 0.46387 | 101.44508 | 141 ft | 20 kts | 90° |
| 2026-05-07 15:49 | 0.46427 | 101.44583 | 141 ft | 11 kts | 16° |
| 2026-05-07 15:49 | 0.46478 | 101.44628 | 141 ft | 10 kts | 78° |
| 2026-05-07 15:50 | 0.46480 | 101.44675 | 141 ft | 0 kts | 90° |